createdAt,value
2023-05-04T00:02:42.521Z,8.31
2023-05-04T00:32:42.375Z,8.13
2023-05-04T01:02:42.400Z,7.63
2023-05-04T01:32:42.378Z,7.63
2023-05-04T02:02:42.423Z,7.5
2023-05-04T02:32:42.395Z,7.13
2023-05-04T03:02:42.422Z,6.69
2023-05-04T03:32:42.443Z,6.31
2023-05-04T04:02:42.507Z,6.25
2023-05-04T04:32:42.436Z,6.13
2023-05-04T05:02:42.443Z,6.5
2023-05-04T05:32:42.444Z,7.56
2023-05-04T06:02:42.511Z,8.69
2023-05-04T06:32:42.477Z,10
2023-05-04T07:02:42.454Z,11.31
2023-05-04T07:32:42.740Z,12.13
2023-05-04T08:02:42.534Z,13.31
2023-05-04T08:32:42.442Z,14.19
2023-05-04T09:02:42.483Z,15
2023-05-04T09:32:42.497Z,15.88
2023-05-04T10:02:42.535Z,16.19
2023-05-04T10:32:42.494Z,17.13
2023-05-04T11:02:42.491Z,17.88
2023-05-04T11:32:42.485Z,19.75
2023-05-04T12:02:42.540Z,21.44
2023-05-04T12:32:42.525Z,22.25
2023-05-04T13:02:42.585Z,23.75
2023-05-04T13:32:42.573Z,25.19
2023-05-04T14:02:42.566Z,24.94
2023-05-04T14:32:42.527Z,24.69
2023-05-04T15:02:42.567Z,23.69
2023-05-04T15:32:42.564Z,23.31
2023-05-04T16:02:42.573Z,23.5
2023-05-04T16:32:42.566Z,22.88
2023-05-04T17:02:42.697Z,23.06
2023-05-04T17:32:42.548Z,21.63
2023-05-04T18:02:42.574Z,20.06
2023-05-04T18:32:42.605Z,18.5
2023-05-04T19:02:42.564Z,17.25
2023-05-04T19:32:42.575Z,16.19
2023-05-04T20:02:42.689Z,15.44
2023-05-04T20:32:42.624Z,14.5
2023-05-04T21:02:42.676Z,13.75
2023-05-04T21:32:42.626Z,13.31
2023-05-04T22:02:42.614Z,12.75
2023-05-04T22:32:42.582Z,12.13
2023-05-04T23:02:42.643Z,11.38
2023-05-04T23:32:42.580Z,11.06
